Glasgow, MT

6:47 PM MST on February 06, 2016 (GMT -0700)
APRSWXNET | | Change Station
CLOSE
Current Station
Personal Weather Station
Location: Glasgow, MT
Elevation: 2211 ft
Nearby Weather Stations
Active Advisory: High Wind Warning Active Notice: Public Information Statement

Elev 2211 ft 48.19 °N, 106.61 °W | Updated 23 minutes ago

Partly Cloudy
Partly Cloudy
37 °F
Feels Like 28 °F
N
16
Wind Variable Wind from WSW
Gusts 26.0 mph

Today
High -- | Low -- °F
--% Chance of Precip.
Yesterday
High -- | Low -- °F
Precip. -- in
Pressure 29.96 in
Visibility 10.0 miles
Clouds Clear
Windchill 28 °F
Dew Point 29 °F
Humidity 72%
Rainfall in
Snow Depth Not available.
7:27 AM 5:13 PM
Waning Crescent, 3% visible
METAR KGGW 070053Z AUTO 28021G32KT 10SM CLR 02/M02 A2990 RMK AO2 PK WND 28037/2357 SLP145 T00221022
Pressure 29.96 in
Visibility 10.0 miles
Clouds Clear
Windchill 28 °F
Dew Point 29 °F
Humidity 72%
Rainfall in
Snow Depth Not available.
7:27 AM 5:13 PM
Waning Crescent, 3% visible
METAR KGGW 070053Z AUTO 28021G32KT 10SM CLR 02/M02 A2990 RMK AO2 PK WND 28037/2357 SLP145 T00221022

10-Day Weather Forecast

Almanac

Astronomy

Feb. 06, 2016 Rise Set
Actual Time
Civil Twilight
Nautical Twilight
Astronomical Twilight
Moon
Length of Visible Light
Length of Day
Tomorrow will be .
, % of the Moon is Illuminated

Today's Extremes

State Highs State Lows

Community

WunderPhotos

Upload Photos

1,891,123 photos uploaded!

WunderBlog® & News

Nearby

Air Quality

  Air Quality AQ Index Pollutant
Not available.

Snow Depth

Station Depth Elevation

Earthquake Activity

City Distance Mag. Time & Date
Minimum magnitude displayed is 2.5.

Coastal Water Temperatures

Place Temperature

Stations

Nearby Weather Stations

Station Location Temp. Windchill Dew Point Humidity Wind Precip. Elev Updated Type
                   

Watches & Warnings

High Wind Warning
Issued: 2:34 PM MST Feb. 6, 2016 – National Weather Service

... High Wind Warning remains in effect until 5 PM MST Sunday...

* winds... northwest 30 to 40 mph with gusts up to 60 mph. Calming
slightly overnight... . then resuming full speed Sunday.

* Timing... this afternoon through Sunday. With slight diminishing
overnight.

* Impacts... the strong winds may make travel difficult
especially for high profile vehicles on north-south oriented
roads.

Precautionary/preparedness actions...

A High Wind Warning means a hazardous high wind event is expected
or occurring. Sustained wind speeds of at least 40 mph or gusts
of 58 mph or more can lead to property damage.